Time;durP1;ratioP1;P1;durP2;ratioP2;P2;SDS_P1;SDS_P2;PMS_P1;PMS_P2;Temp;Humidity;BMP_temperature;BMP_pressure;BME280_temperature;BME280_humidity;BME280_pressure;Samples;Min_cycle;Max_cycle;Signal;HPM_P1;HPM_P2
2023/04/15 00:01:59;;;;;;;5.78;3.55;;;6.10;99.90;;;;;;5006005;28;20038;-76
2023/04/15 00:04:25;;;;;;;9.15;3.63;;;6.10;99.90;;;;;;5021364;28;20026;-77
2023/04/15 00:06:54;;;;;;;4.80;2.88;;;6.20;99.90;;;;;;5006342;28;20026;-77
2023/04/15 00:09:20;;;;;;;5.35;3.47;;;6.10;99.90;;;;;;5006130;28;20031;-77
2023/04/15 00:11:46;;;;;;;4.93;3.47;;;6.10;99.90;;;;;;5021485;28;20077;-77
2023/04/15 00:14:12;;;;;;;6.72;3.63;;;6.10;99.90;;;;;;5006901;28;20098;-76
2023/04/15 00:16:38;;;;;;;6.38;3.50;;;6.10;99.90;;;;;;5006833;28;20012;-76
2023/04/15 00:19:03;;;;;;;5.68;3.03;;;6.10;99.90;;;;;;5006782;28;20034;-76
2023/04/15 00:21:30;;;;;;;3.88;2.85;;;6.00;99.90;;;;;;5006213;28;20027;-76
2023/04/15 00:23:55;;;;;;;4.60;2.97;;;6.00;99.90;;;;;;5005155;28;20030;-77
2023/04/15 00:26:21;;;;;;;3.80;3.30;;;6.00;99.90;;;;;;5005918;28;20037;-77
2023/04/15 00:28:46;;;;;;;7.15;3.15;;;6.00;99.90;;;;;;5006428;28;20488;-76
2023/04/15 00:31:13;;;;;;;4.65;3.08;;;6.00;99.90;;;;;;5005577;28;20047;-76
2023/04/15 00:33:38;;;;;;;3.83;3.00;;;5.90;99.90;;;;;;5006226;28;20038;-75
2023/04/15 00:36:06;;;;;;;3.97;3.55;;;5.90;99.90;;;;;;5006319;28;20082;-76
2023/04/15 00:38:31;;;;;;;3.25;2.95;;;5.90;99.90;;;;;;5005754;28;20023;-76
2023/04/15 00:40:57;;;;;;;3.95;3.20;;;5.90;99.90;;;;;;5005523;28;20550;-77
2023/04/15 00:43:23;;;;;;;2.90;2.60;;;5.80;99.90;;;;;;5006029;28;20042;-76
2023/04/15 00:45:50;;;;;;;4.15;2.90;;;5.80;99.90;;;;;;5021167;28;20498;-77
2023/04/15 00:48:17;;;;;;;4.20;3.20;;;5.70;99.90;;;;;;5005909;28;20026;-76
2023/04/15 00:50:42;;;;;;;5.18;3.03;;;5.60;99.90;;;;;;5005595;28;20046;-75
2023/04/15 00:53:08;;;;;;;8.55;3.50;;;5.50;99.90;;;;;;5005143;28;20034;-77
2023/04/15 00:55:35;;;;;;;4.47;3.17;;;5.50;99.90;;;;;;5005474;28;20030;-76
2023/04/15 00:58:00;;;;;;;7.40;3.53;;;5.50;99.90;;;;;;5006085;28;20045;-75
2023/04/15 01:00:26;;;;;;;3.88;2.70;;;5.50;99.90;;;;;;5004809;28;20026;-75
2023/04/15 01:02:51;;;;;;;3.58;3.28;;;5.50;99.90;;;;;;5001052;28;20045;-75
2023/04/15 01:05:18;;;;;;;3.40;2.50;;;5.50;99.90;;;;;;5016209;28;20090;-75
2023/04/15 01:07:44;;;;;;;3.60;3.30;;;5.40;99.90;;;;;;4999953;28;20065;-75
2023/04/15 01:10:09;;;;;;;3.92;2.67;;;5.50;99.90;;;;;;5000021;28;20054;-75
2023/04/15 01:12:36;;;;;;;5.32;2.90;;;5.40;99.90;;;;;;4999952;28;20035;-75
2023/04/15 01:15:02;;;;;;;3.13;2.85;;;5.40;99.90;;;;;;5000847;28;20065;-75
2023/04/15 01:17:28;;;;;;;5.22;3.08;;;5.40;99.90;;;;;;4998901;28;20030;-75
2023/04/15 01:19:56;;;;;;;3.55;3.10;;;5.30;99.90;;;;;;5000140;28;20042;-75
2023/04/15 01:22:24;;;;;;;2.43;2.23;;;5.20;99.90;;;;;;4999560;28;20030;-75
2023/04/15 01:25:05;;;;;;;4.20;3.53;;;5.20;99.90;;;;;;4999750;28;20718;-74
2023/04/15 01:27:31;;;;;;;5.00;3.13;;;5.10;99.90;;;;;;4999591;28;20038;-75
2023/04/15 01:30:00;;;;;;;3.03;2.72;;;5.10;99.90;;;;;;4999782;28;20068;-75
2023/04/15 01:32:26;;;;;;;3.42;2.75;;;5.10;99.90;;;;;;4998761;28;20051;-75
2023/04/15 01:34:51;;;;;;;3.33;3.03;;;5.00;99.90;;;;;;4999506;28;20473;-75
2023/04/15 01:37:17;;;;;;;4.07;2.83;;;5.00;99.90;;;;;;5000285;28;20039;-75
2023/04/15 01:39:43;;;;;;;4.38;3.13;;;5.00;99.90;;;;;;4999606;28;20034;-75
2023/04/15 01:42:09;;;;;;;3.92;2.90;;;4.90;99.90;;;;;;4999375;28;20022;-74
2023/04/15 01:44:34;;;;;;;4.10;3.38;;;4.90;99.90;;;;;;5036333;28;20125;-75
2023/04/15 01:47:00;;;;;;;5.00;3.22;;;4.90;99.90;;;;;;5038258;28;20033;-75
2023/04/15 01:49:26;;;;;;;5.68;2.90;;;5.00;99.90;;;;;;5039412;28;20104;-75
2023/04/15 01:51:53;;;;;;;4.30;2.92;;;4.90;99.90;;;;;;5039008;28;20041;-75
2023/04/15 01:54:18;;;;;;;5.57;3.40;;;4.90;99.90;;;;;;5038638;28;20028;-75
2023/04/15 01:56:44;;;;;;;3.05;2.47;;;4.90;99.90;;;;;;5038532;28;20022;-75
2023/04/15 01:59:09;;;;;;;3.13;2.80;;;4.90;99.90;;;;;;5020731;28;20112;-75
2023/04/15 02:01:35;;;;;;;5.65;2.90;;;4.90;99.90;;;;;;5028233;28;20038;-75
2023/04/15 02:04:00;;;;;;;3.65;3.30;;;4.80;99.90;;;;;;5018975;28;20073;-75
2023/04/15 02:06:27;;;;;;;4.10;2.80;;;4.80;99.90;;;;;;5019263;28;20516;-75
2023/04/15 02:08:52;;;;;;;3.28;2.80;;;4.80;99.90;;;;;;5019031;28;20028;-76
2023/04/15 02:11:18;;;;;;;3.40;3.10;;;4.80;99.90;;;;;;5017900;28;20048;-75
2023/04/15 02:13:44;;;;;;;5.20;2.72;;;4.80;99.90;;;;;;5019233;28;20031;-75
2023/04/15 02:16:17;;;;;;;4.45;3.38;;;4.80;99.90;;;;;;5018985;28;20026;-75
2023/04/15 02:18:46;;;;;;;2.55;2.35;;;4.90;99.90;;;;;;5018848;28;20075;-75
2023/04/15 02:21:12;;;;;;;3.83;3.20;;;4.80;99.90;;;;;;5001459;28;20034;-74
2023/04/15 02:23:37;;;;;;;4.70;3.53;;;4.80;99.90;;;;;;5018497;28;20033;-75
2023/04/15 02:26:03;;;;;;;6.55;3.67;;;4.80;99.90;;;;;;5017992;28;20081;-75
2023/04/15 02:28:28;;;;;;;6.72;3.78;;;4.70;99.90;;;;;;5018581;28;20033;-75
2023/04/15 02:30:56;;;;;;;6.43;3.70;;;4.70;99.90;;;;;;5017467;28;20060;-75
2023/04/15 02:33:22;;;;;;;6.50;3.20;;;4.80;99.90;;;;;;5018731;28;20423;-75
2023/04/15 02:35:47;;;;;;;5.47;3.28;;;4.80;99.90;;;;;;5018126;28;20026;-75
2023/04/15 02:38:15;;;;;;;4.22;2.97;;;4.70;99.90;;;;;;5018087;28;20114;-75
2023/04/15 02:40:41;;;;;;;6.93;3.47;;;4.70;99.90;;;;;;5018199;28;20037;-75
2023/04/15 02:43:06;;;;;;;4.22;2.63;;;4.70;99.90;;;;;;5018814;28;20281;-75
2023/04/15 02:45:32;;;;;;;6.43;3.03;;;4.70;99.90;;;;;;5018722;28;20374;-75
2023/04/15 02:47:58;;;;;;;4.93;3.42;;;4.70;99.90;;;;;;5018907;28;20026;-75
2023/04/15 02:50:24;;;;;;;3.08;2.78;;;4.70;99.90;;;;;;5001302;28;20378;-75
2023/04/15 02:52:51;;;;;;;4.70;3.25;;;4.70;99.90;;;;;;5018245;28;20033;-75
2023/04/15 02:55:16;;;;;;;3.72;2.92;;;4.70;99.90;;;;;;5018408;28;20040;-74
2023/04/15 02:57:42;;;;;;;4.78;3.47;;;4.70;99.90;;;;;;5018533;28;20030;-75
2023/04/15 03:00:10;;;;;;;4.20;3.35;;;4.70;99.90;;;;;;5018436;28;20073;-75
2023/04/15 03:02:38;;;;;;;4.00;3.47;;;4.70;99.90;;;;;;5034346;28;20056;-75
2023/04/15 03:05:04;;;;;;;5.38;3.72;;;4.70;99.90;;;;;;5038836;28;20259;-73
2023/04/15 03:07:30;;;;;;;5.82;3.45;;;4.70;99.90;;;;;;5038299;28;20480;-75
2023/04/15 03:09:56;;;;;;;5.72;3.78;;;4.80;99.90;;;;;;5037191;28;20112;-76
2023/04/15 03:12:22;;;;;;;7.93;3.10;;;4.80;99.90;;;;;;5038197;28;20037;-74
2023/04/15 03:14:47;;;;;;;6.68;3.72;;;4.70;99.90;;;;;;5038506;28;20032;-74
2023/04/15 03:17:13;;;;;;;5.50;3.45;;;4.70;99.90;;;;;;5038194;28;20036;-74
2023/04/15 03:19:39;;;;;;;5.93;3.47;;;4.70;99.90;;;;;;5038316;28;20033;-74
2023/04/15 03:22:04;;;;;;;6.72;3.85;;;4.70;99.90;;;;;;5037844;28;20025;-74
2023/04/15 03:24:30;;;;;;;3.20;2.95;;;4.60;99.90;;;;;;5038531;28;20038;-75
2023/04/15 03:26:56;;;;;;;4.40;3.47;;;4.60;99.90;;;;;;5038986;28;20034;-74
2023/04/15 03:29:22;;;;;;;3.47;3.17;;;4.60;99.90;;;;;;5039446;28;20030;-74
2023/04/15 03:31:48;;;;;;;4.00;3.50;;;4.60;99.90;;;;;;5038918;28;20048;-75
2023/04/15 03:34:13;;;;;;;5.47;3.40;;;4.60;99.90;;;;;;5038513;28;20034;-74
2023/04/15 03:36:39;;;;;;;4.75;3.30;;;4.60;99.90;;;;;;5039420;28;20021;-74
2023/04/15 03:39:05;;;;;;;3.45;3.08;;;4.50;99.90;;;;;;5039100;28;20033;-73
2023/04/15 03:41:31;;;;;;;4.70;3.10;;;4.60;99.90;;;;;;5042903;28;20053;-75
2023/04/15 03:43:57;;;;;;;3.70;3.40;;;4.60;99.90;;;;;;5042299;28;20053;-74
2023/04/15 03:46:22;;;;;;;3.72;3.00;;;4.50;99.90;;;;;;5042884;28;20450;-75
2023/04/15 03:48:48;;;;;;;6.70;3.40;;;4.50;99.90;;;;;;5025172;28;20042;-73
2023/04/15 03:51:13;;;;;;;3.47;2.78;;;4.50;99.90;;;;;;5042853;28;20029;-74
2023/04/15 03:53:39;;;;;;;8.57;3.85;;;4.40;99.90;;;;;;5042743;28;20431;-74
2023/04/15 03:56:05;;;;;;;4.10;3.33;;;4.50;99.90;;;;;;5041059;28;20033;-74
2023/04/15 03:58:30;;;;;;;4.10;3.22;;;4.50;99.90;;;;;;5039153;28;20025;-75
2023/04/15 04:00:56;;;;;;;3.20;2.90;;;4.50;99.90;;;;;;5039034;28;20041;-75
2023/04/15 04:03:22;;;;;;;4.63;2.63;;;4.40;99.90;;;;;;5039639;28;20036;-75
2023/04/15 04:05:48;;;;;;;5.78;3.35;;;4.40;99.90;;;;;;5038543;28;20025;-74
2023/04/15 04:08:15;;;;;;;4.65;3.17;;;4.40;99.90;;;;;;5039774;28;20527;-74
2023/04/15 04:10:41;;;;;;;5.68;3.65;;;4.40;99.90;;;;;;5039774;28;20025;-73
2023/04/15 04:13:06;;;;;;;5.80;2.88;;;4.30;99.90;;;;;;5039932;28;20088;-74
2023/04/15 04:15:32;;;;;;;5.38;3.28;;;4.30;99.90;;;;;;5040097;28;20026;-75
2023/04/15 04:17:58;;;;;;;3.33;2.90;;;4.30;99.90;;;;;;5040549;28;20029;-74
2023/04/15 04:20:23;;;;;;;4.85;3.13;;;4.30;99.90;;;;;;5040581;28;20377;-75
2023/04/15 04:22:49;;;;;;;6.43;3.38;;;4.30;99.90;;;;;;5040576;28;20373;-75
2023/04/15 04:25:15;;;;;;;4.80;3.78;;;4.30;99.90;;;;;;5040851;28;20033;-75
2023/04/15 04:27:40;;;;;;;4.40;2.80;;;4.30;99.90;;;;;;5039952;28;20037;-75
2023/04/15 04:30:07;;;;;;;3.65;2.85;;;4.20;99.90;;;;;;5040495;28;20543;-75
2023/04/15 04:32:32;;;;;;;5.68;3.47;;;4.20;99.90;;;;;;5039017;28;20068;-74
2023/04/15 04:34:58;;;;;;;5.32;3.08;;;4.30;99.90;;;;;;5040194;28;20041;-74
2023/04/15 04:37:23;;;;;;;5.07;3.42;;;4.20;99.90;;;;;;5040575;28;20442;-74
2023/04/15 04:39:49;;;;;;;3.83;3.25;;;4.30;99.90;;;;;;5040503;28;20030;-74
2023/04/15 04:42:15;;;;;;;2.72;2.53;;;4.20;99.90;;;;;;5040027;28;20033;-74
2023/04/15 04:44:41;;;;;;;3.83;3.05;;;4.30;99.90;;;;;;5039930;28;20053;-74
2023/04/15 04:47:07;;;;;;;3.35;2.80;;;4.30;99.90;;;;;;5040227;28;20373;-73
2023/04/15 04:49:32;;;;;;;3.40;3.10;;;4.20;99.90;;;;;;5022341;28;20120;-74
2023/04/15 04:51:58;;;;;;;3.83;2.92;;;4.20;99.90;;;;;;5039815;28;20017;-75
2023/04/15 04:54:24;;;;;;;4.95;3.25;;;4.30;99.90;;;;;;5039648;28;20029;-75
2023/04/15 04:56:50;;;;;;;6.85;3.50;;;4.30;99.90;;;;;;5039536;28;20031;-75
2023/04/15 04:59:16;;;;;;;4.05;3.28;;;4.30;99.90;;;;;;5039085;28;20026;-75
2023/04/15 05:01:41;;;;;;;5.82;3.00;;;4.40;99.90;;;;;;5038214;28;20033;-74
2023/04/15 05:04:07;;;;;;;5.35;3.05;;;4.30;99.90;;;;;;5040046;28;20355;-75
2023/04/15 05:06:34;;;;;;;7.32;3.75;;;4.30;99.90;;;;;;5039362;28;20465;-74
2023/04/15 05:09:00;;;;;;;5.60;3.60;;;4.40;99.90;;;;;;5022038;28;20022;-75
2023/04/15 05:11:27;;;;;;;4.30;2.85;;;4.40;99.90;;;;;;5039497;28;20453;-74
2023/04/15 05:13:52;;;;;;;5.38;3.17;;;4.40;99.90;;;;;;5039797;28;20025;-75
2023/04/15 05:16:18;;;;;;;4.15;3.17;;;4.40;99.90;;;;;;5039822;28;20516;-75
2023/04/15 05:18:44;;;;;;;3.75;2.67;;;4.50;99.90;;;;;;5039171;28;20034;-75
2023/04/15 05:21:10;;;;;;;3.30;2.65;;;4.50;99.90;;;;;;5039318;28;20029;-75
2023/04/15 05:23:36;;;;;;;8.70;3.80;;;4.60;99.90;;;;;;5038992;28;20055;-75
2023/04/15 05:26:02;;;;;;;4.32;2.80;;;4.60;99.90;;;;;;5040088;28;20064;-74
2023/04/15 05:28:28;;;;;;;3.35;3.05;;;4.60;99.90;;;;;;5039863;28;20021;-75
2023/04/15 05:30:53;;;;;;;5.15;3.05;;;4.70;99.90;;;;;;5038747;28;20029;-75
2023/04/15 05:33:19;;;;;;;5.78;3.17;;;4.80;99.90;;;;;;5040094;28;20034;-75
2023/04/15 05:35:47;;;;;;;4.15;2.65;;;4.80;99.90;;;;;;5022826;28;20030;-75
2023/04/15 05:38:13;;;;;;;3.67;2.83;;;4.80;99.90;;;;;;5040317;28;20056;-75
2023/04/15 05:40:38;;;;;;;3.80;2.60;;;4.80;99.90;;;;;;5038310;28;20037;-75
2023/04/15 05:43:04;;;;;;;5.13;2.92;;;4.90;99.90;;;;;;5039434;28;20140;-75
2023/04/15 05:45:30;;;;;;;3.83;2.95;;;4.90;99.90;;;;;;5039425;28;20025;-75
2023/04/15 05:47:55;;;;;;;4.50;2.30;;;4.90;99.90;;;;;;5039481;28;20026;-75
2023/04/15 05:50:21;;;;;;;3.45;2.47;;;4.90;99.90;;;;;;5039149;28;20437;-75
2023/04/15 05:52:46;;;;;;;5.25;2.17;;;4.90;99.90;;;;;;5038734;28;20029;-75
2023/04/15 05:55:13;;;;;;;3.35;2.38;;;4.80;99.90;;;;;;5039060;28;20030;-75
2023/04/15 05:57:38;;;;;;;3.65;2.50;;;4.80;99.90;;;;;;5039526;28;20036;-75
2023/04/15 06:00:05;;;;;;;2.95;2.20;;;4.80;99.90;;;;;;5021398;28;20025;-75
2023/04/15 06:02:30;;;;;;;3.75;2.20;;;4.80;99.90;;;;;;5038043;28;20523;-74
2023/04/15 06:04:56;;;;;;;4.15;2.15;;;4.80;99.90;;;;;;5038273;28;20037;-74
2023/04/15 06:07:23;;;;;;;4.38;2.17;;;4.80;99.90;;;;;;5039986;28;20450;-75
2023/04/15 06:09:48;;;;;;;4.70;2.63;;;4.80;99.90;;;;;;5039711;28;20037;-75
2023/04/15 06:12:14;;;;;;;4.03;1.90;;;4.80;99.90;;;;;;5039105;28;20041;-75
2023/04/15 06:14:40;;;;;;;2.35;1.85;;;4.80;99.90;;;;;;5040818;28;20040;-74
2023/04/15 06:17:06;;;;;;;2.20;2.00;;;4.80;99.90;;;;;;5022286;28;20030;-75
2023/04/15 06:19:33;;;;;;;2.38;2.10;;;4.90;99.90;;;;;;5039606;28;20026;-75
2023/04/15 06:21:59;;;;;;;3.47;2.20;;;4.90;99.90;;;;;;5040388;28;20033;-76
2023/04/15 06:24:24;;;;;;;5.00;2.50;;;4.90;99.90;;;;;;5039715;28;20032;-75
2023/04/15 06:26:50;;;;;;;4.68;2.30;;;5.00;99.90;;;;;;5039570;28;20437;-76
2023/04/15 06:29:16;;;;;;;3.65;1.83;;;5.00;99.90;;;;;;5038936;28;20022;-76
2023/04/15 06:31:41;;;;;;;2.70;1.85;;;5.10;99.90;;;;;;5038716;28;20048;-76
2023/04/15 06:34:07;;;;;;;1.80;1.70;;;5.10;99.90;;;;;;5039170;28;20041;-76
2023/04/15 06:36:33;;;;;;;3.53;1.80;;;5.20;99.90;;;;;;5039542;28;20029;-75
2023/04/15 06:38:58;;;;;;;4.53;1.80;;;5.20;99.90;;;;;;5037763;28;20044;-75
2023/04/15 06:41:24;;;;;;;2.67;1.67;;;5.30;99.90;;;;;;5039302;28;20024;-75
2023/04/15 06:43:50;;;;;;;3.08;1.80;;;5.20;99.90;;;;;;5039849;28;20064;-75
2023/04/15 06:46:16;;;;;;;2.08;1.80;;;5.30;99.90;;;;;;5040256;28;20056;-76
2023/04/15 06:48:41;;;;;;;2.67;1.73;;;5.30;99.90;;;;;;5038666;28;20052;-75
2023/04/15 06:51:07;;;;;;;3.05;2.00;;;5.30;99.90;;;;;;5039087;28;20064;-75
2023/04/15 06:53:34;;;;;;;3.25;2.15;;;5.40;99.90;;;;;;5039779;28;20029;-75
2023/04/15 06:56:00;;;;;;;2.42;1.80;;;5.40;99.90;;;;;;5042104;28;20037;-75
2023/04/15 06:58:25;;;;;;;3.50;2.20;;;5.40;99.90;;;;;;5041510;28;20453;-76
2023/04/15 07:00:51;;;;;;;3.22;1.85;;;5.50;99.90;;;;;;5037886;28;20037;-75
2023/04/15 07:03:17;;;;;;;4.70;2.03;;;5.50;99.90;;;;;;5037804;28;20033;-75
2023/04/15 07:05:43;;;;;;;4.18;1.60;;;5.50;99.90;;;;;;5039011;28;20381;-74
2023/04/15 07:08:09;;;;;;;3.22;1.92;;;5.60;99.90;;;;;;5039667;28;20462;-75
2023/04/15 07:10:35;;;;;;;3.42;1.75;;;5.60;99.90;;;;;;5039658;28;20500;-75
2023/04/15 07:13:00;;;;;;;4.47;2.35;;;5.60;99.90;;;;;;5039109;28;20035;-75
2023/04/15 07:15:26;;;;;;;5.70;2.30;;;5.70;99.90;;;;;;5040824;28;20036;-76
2023/04/15 07:17:51;;;;;;;1.45;1.35;;;5.80;99.90;;;;;;5043789;28;20036;-74
2023/04/15 07:20:17;;;;;;;4.80;1.85;;;5.70;99.90;;;;;;5043982;28;20033;-75
2023/04/15 07:22:43;;;;;;;2.38;2.00;;;5.90;99.90;;;;;;5043522;28;20080;-75
2023/04/15 07:25:09;;;;;;;4.35;2.20;;;5.90;99.90;;;;;;5025822;28;20133;-76
2023/04/15 07:27:35;;;;;;;2.38;1.90;;;6.00;99.90;;;;;;5043998;28;20387;-75
2023/04/15 07:30:01;;;;;;;2.53;1.45;;;6.00;99.90;;;;;;5044571;28;20068;-75
2023/04/15 07:32:26;;;;;;;4.82;1.73;;;6.10;99.90;;;;;;5025094;28;20042;-75
2023/04/15 07:34:52;;;;;;;5.65;2.00;;;6.20;99.90;;;;;;5045060;28;20017;-75
2023/04/15 07:37:18;;;;;;;3.17;1.98;;;6.30;99.90;;;;;;5043687;28;20108;-75
2023/04/15 07:39:44;;;;;;;2.10;1.90;;;6.40;99.90;;;;;;5042771;28;20021;-75
2023/04/15 07:42:09;;;;;;;3.17;1.90;;;6.50;99.90;;;;;;5022796;28;20093;-75
2023/04/15 07:44:35;;;;;;;4.18;1.80;;;6.60;99.90;;;;;;5040224;28;20377;-75
2023/04/15 07:47:02;;;;;;;2.72;1.50;;;6.70;99.90;;;;;;5042879;28;20033;-75
2023/04/15 07:49:27;;;;;;;1.73;1.42;;;6.80;99.90;;;;;;5042706;28;20469;-75
2023/04/15 07:51:53;;;;;;;2.53;1.48;;;6.90;99.90;;;;;;5043939;28;20040;-75
2023/04/15 07:54:19;;;;;;;4.13;2.15;;;7.00;99.90;;;;;;5043725;28;20029;-76
2023/04/15 07:56:45;;;;;;;2.50;2.00;;;7.20;99.90;;;;;;5044021;28;20040;-75
2023/04/15 07:59:10;;;;;;;3.50;1.75;;;7.20;99.90;;;;;;5041640;28;20075;-75
2023/04/15 08:01:36;;;;;;;4.05;1.63;;;7.30;99.90;;;;;;5042788;28;20033;-74
2023/04/15 08:04:02;;;;;;;3.42;1.70;;;7.40;99.90;;;;;;5042431;28;20025;-75
2023/04/15 08:06:28;;;;;;;4.32;2.28;;;7.40;99.90;;;;;;5042562;28;20026;-76
2023/04/15 08:08:54;;;;;;;1.65;1.50;;;7.50;99.90;;;;;;5042555;28;20083;-75
2023/04/15 08:11:20;;;;;;;1.75;1.50;;;7.40;99.90;;;;;;5042530;28;20025;-74
2023/04/15 08:13:46;;;;;;;4.50;1.90;;;7.50;99.90;;;;;;5043322;28;20025;-75
2023/04/15 08:16:21;;;;;;;3.10;2.08;;;7.50;99.90;;;;;;5044287;28;20423;-75
2023/04/15 08:18:47;;;;;;;4.78;2.05;;;7.50;99.90;;;;;;5043769;28;20037;-76
2023/04/15 08:21:13;;;;;;;3.70;2.03;;;7.60;99.90;;;;;;5026611;28;20093;-76
2023/04/15 08:23:39;;;;;;;2.35;1.80;;;7.70;99.90;;;;;;5026201;28;20076;-76
2023/04/15 08:26:06;;;;;;;2.78;1.90;;;7.80;99.90;;;;;;5045033;28;20033;-76
2023/04/15 08:28:32;;;;;;;3.58;2.08;;;7.90;99.90;;;;;;5043895;28;20033;-77
2023/04/15 08:30:57;;;;;;;1.92;1.70;;;7.90;99.90;;;;;;5044265;28;20040;-75
2023/04/15 08:33:23;;;;;;;3.20;2.03;;;8.00;99.90;;;;;;5045381;28;20036;-76
2023/04/15 08:35:48;;;;;;;1.83;1.60;;;8.00;99.90;;;;;;5045020;28;20029;-77
2023/04/15 08:38:14;;;;;;;3.22;1.70;;;8.00;99.90;;;;;;5043887;28;20087;-75
2023/04/15 08:40:42;;;;;;;4.53;1.85;;;8.00;99.90;;;;;;5043964;28;20044;-76
2023/04/15 08:43:11;;;;;;;3.85;1.92;;;8.10;99.90;;;;;;5044066;28;20057;-77
2023/04/15 08:45:38;;;;;;;1.98;1.75;;;8.20;99.90;;;;;;5043759;28;20087;-77
2023/04/15 08:48:05;;;;;;;6.93;1.80;;;8.30;99.90;;;;;;5044452;28;20033;-76
2023/04/15 08:50:32;;;;;;;3.13;1.73;;;8.40;99.90;;;;;;5045210;28;20029;-76
2023/04/15 08:53:01;;;;;;;3.58;2.03;;;8.40;99.90;;;;;;5045387;28;20039;-76
2023/04/15 08:55:34;;;;;;;2.72;2.03;;;8.50;99.90;;;;;;5041909;28;20021;-75
2023/04/15 08:58:01;;;;;;;3.50;2.10;;;8.50;99.90;;;;;;5040847;28;20053;-75
2023/04/15 09:00:28;;;;;;;4.45;1.98;;;8.60;99.90;;;;;;5040900;28;20049;-75
2023/04/15 09:02:55;;;;;;;3.30;2.13;;;8.60;99.90;;;;;;5040094;28;20480;-75
2023/04/15 09:05:21;;;;;;;3.50;2.10;;;8.60;99.90;;;;;;5042370;28;20045;-75
2023/04/15 09:07:49;;;;;;;2.55;2.20;;;8.70;99.90;;;;;;5043834;28;20021;-75
2023/04/15 09:10:14;;;;;;;2.03;1.55;;;8.80;99.90;;;;;;5043019;28;20033;-75
2023/04/15 09:12:40;;;;;;;2.35;1.83;;;8.90;99.90;;;;;;5043525;28;20038;-75
2023/04/15 09:15:09;;;;;;;4.38;1.65;;;9.00;99.90;;;;;;5042790;28;20064;-75
2023/04/15 09:17:44;;;;;;;2.42;1.90;;;9.00;99.90;;;;;;5042606;28;20089;-75
2023/04/15 09:20:12;;;;;;;1.42;1.33;;;8.90;99.90;;;;;;5043480;28;20495;-75
2023/04/15 09:22:44;;;;;;;3.88;2.10;;;8.90;99.90;;;;;;5040792;28;20040;-79
2023/04/15 09:25:22;;;;;;;3.88;2.25;;;9.00;99.90;;;;;;5044550;28;20041;-81
2023/04/15 09:27:56;;;;;;;3.42;2.67;;;9.10;99.90;;;;;;5042721;28;20055;-84
2023/04/15 09:30:22;;;;;;;2.90;2.10;;;9.20;99.90;;;;;;5043865;28;20030;-83
2023/04/15 09:32:52;;;;;;;2.30;2.10;;;9.30;99.90;;;;;;5043507;28;20050;-86
2023/04/15 09:35:19;;;;;;;5.05;2.30;;;9.30;99.90;;;;;;5043291;28;20029;-86
2023/04/15 09:37:45;;;;;;;2.78;2.10;;;9.40;99.90;;;;;;5043576;28;20086;-78
2023/04/15 09:40:14;;;;;;;3.53;2.20;;;9.40;99.90;;;;;;5044138;28;20025;-83
2023/04/15 09:43:03;;;;;;;4.15;2.40;;;9.40;99.90;;;;;;5043626;28;20056;-83
2023/04/15 09:45:30;;;;;;;4.82;2.25;;;9.40;99.90;;;;;;5027015;28;20025;-82
2023/04/15 09:48:15;;;;;;;7.10;2.80;;;9.40;99.90;;;;;;5043733;28;20025;-74
2023/04/15 09:50:42;;;;;;;3.40;2.38;;;9.60;99.90;;;;;;5041885;28;20037;-75
2023/04/15 09:53:10;;;;;;;3.65;2.90;;;9.70;99.90;;;;;;5042196;28;20048;-74
2023/04/15 09:55:36;;;;;;;6.53;3.28;;;9.80;99.90;;;;;;5041767;28;20076;-75
2023/04/15 09:58:07;;;;;;;4.88;2.85;;;9.80;99.90;;;;;;5043110;28;20029;-77
2023/04/15 10:00:37;;;;;;;2.78;2.42;;;9.90;99.90;;;;;;5042933;28;20021;-78
2023/04/15 10:03:04;;;;;;;5.35;3.05;;;10.00;99.90;;;;;;5043834;28;20351;-76
2023/04/15 10:05:31;;;;;;;6.68;3.15;;;10.00;99.90;;;;;;5043372;28;20044;-77
2023/04/15 10:07:57;;;;;;;3.95;2.80;;;10.10;99.90;;;;;;5043554;28;20044;-77
2023/04/15 10:10:23;;;;;;;6.93;2.90;;;10.20;99.90;;;;;;5043817;28;20029;-75
2023/04/15 10:12:51;;;;;;;3.25;2.80;;;10.20;99.60;;;;;;5050716;28;20052;-77
2023/04/15 10:15:17;;;;;;;3.28;2.97;;;10.30;99.90;;;;;;5047924;28;20021;-75
2023/04/15 10:17:44;;;;;;;4.35;3.10;;;10.50;99.90;;;;;;5045233;28;20064;-76
2023/04/15 10:20:11;;;;;;;3.05;2.53;;;10.60;99.90;;;;;;5046266;28;20105;-77
2023/04/15 10:22:39;;;;;;;5.27;2.70;;;10.70;99.10;;;;;;5045091;28;20474;-76
2023/04/15 10:25:06;;;;;;;4.13;2.70;;;10.90;99.90;;;;;;5041468;28;20041;-75
2023/04/15 10:27:32;;;;;;;4.50;3.08;;;11.00;99.90;;;;;;5039695;28;20076;-74
2023/04/15 10:30:00;;;;;;;5.80;3.00;;;10.90;96.90;;;;;;5036333;28;20079;-73
2023/04/15 10:32:26;;;;;;;6.85;3.28;;;10.80;97.80;;;;;;5035803;28;20475;-73
2023/04/15 10:34:52;;;;;;;3.17;2.58;;;10.80;97.40;;;;;;5036353;28;20073;-73
2023/04/15 10:37:32;;;;;;;6.63;3.30;;;10.70;95.10;;;;;;5036043;28;20108;-73
2023/04/15 10:39:58;;;;;;;5.20;2.90;;;10.70;95.20;;;;;;5036441;28;20025;-73
2023/04/15 10:42:23;;;;;;;3.70;3.20;;;10.70;95.70;;;;;;5036745;28;20104;-73
2023/04/15 10:44:51;;;;;;;5.18;3.13;;;10.70;93.10;;;;;;5036090;28;20115;-73
2023/04/15 10:47:19;;;;;;;5.85;2.88;;;10.70;95.70;;;;;;5036113;28;20389;-72
2023/04/15 10:49:55;;;;;;;4.15;2.83;;;10.80;94.30;;;;;;5034859;28;20112;-73
2023/04/15 10:52:26;;;;;;;6.35;3.08;;;10.80;95.80;;;;;;5035399;28;20380;-73
2023/04/15 10:55:13;;;;;;;6.30;2.92;;;10.70;90.50;;;;;;5035450;28;20025;-70
2023/04/15 10:57:40;;;;;;;4.15;2.90;;;10.60;94.20;;;;;;5035876;28;20041;-72
2023/04/15 11:00:16;;;;;;;4.93;2.58;;;10.70;97.40;;;;;;5035399;28;20025;-71
2023/04/15 11:03:09;;;;;;;4.47;2.65;;;10.60;96.00;;;;;;5034186;28;20055;-70
2023/04/15 11:05:40;;;;;;;2.53;2.33;;;10.50;97.80;;;;;;5033268;28;20127;-75
2023/04/15 11:08:07;;;;;;;5.80;1.98;;;10.20;94.60;;;;;;5039785;28;20029;-75
2023/04/15 11:10:33;;;;;;;2.55;1.70;;;10.40;94.00;;;;;;5036434;28;20033;-72
2023/04/15 11:13:02;;;;;;;1.85;1.50;;;10.40;77.90;;;;;;5034962;28;20041;-73
2023/04/15 11:15:36;;;;;;;1.80;1.67;;;10.50;81.20;;;;;;5035177;28;20048;-73
2023/04/15 11:18:09;;;;;;;2.45;1.50;;;10.60;73.70;;;;;;5036927;28;20026;-75
2023/04/15 11:20:35;;;;;;;1.60;1.50;;;10.70;70.10;;;;;;5040022;28;20065;-75
2023/04/15 11:23:01;;;;;;;1.48;1.38;;;10.70;70.30;;;;;;5042992;28;20092;-76
2023/04/15 11:25:29;;;;;;;2.30;1.40;;;10.70;73.50;;;;;;5037429;28;20029;-72
2023/04/15 11:27:55;;;;;;;;;;;10.80;77.40;;;;;;5042150;28;20033;-76
2023/04/15 11:30:22;;;;;;;2.15;1.75;;;10.80;72.80;;;;;;5025387;28;19925;-75
2023/04/15 11:32:49;;;;;;;4.38;1.77;;;10.90;82.30;;;;;;5025445;28;20489;-76
2023/04/15 11:35:19;;;;;;;2.10;1.73;;;10.90;75.90;;;;;;5022630;28;20408;-73
2023/04/15 11:37:47;;;;;;;2.90;1.80;;;10.80;77.20;;;;;;5037862;28;20081;-75
2023/04/15 11:40:14;;;;;;;2.67;1.70;;;10.70;74.10;;;;;;5041811;28;20037;-77
2023/04/15 11:42:40;;;;;;;3.08;1.60;;;10.60;72.60;;;;;;5042756;28;20025;-78
2023/04/15 11:45:09;;;;;;;1.48;1.38;;;10.50;72.50;;;;;;5043285;28;20077;-75
2023/04/15 11:47:36;;;;;;;2.03;1.52;;;10.50;67.10;;;;;;5022364;28;20021;-74
2023/04/15 11:50:21;;;;;;;1.75;1.50;;;10.60;75.30;;;;;;5040622;28;20085;-77
2023/04/15 11:53:02;;;;;;;1.83;1.60;;;10.70;65.80;;;;;;5042799;28;20033;-75
2023/04/15 11:55:27;;;;;;;2.38;1.20;;;10.60;68.20;;;;;;5043205;28;20572;-75
2023/04/15 11:58:09;;;;;;;1.80;1.33;;;10.60;71.20;;;;;;5042150;28;20034;-75
2023/04/15 12:00:35;;;;;;;1.63;1.33;;;10.60;69.70;;;;;;5039569;28;20025;-79
2023/04/15 12:03:22;;;;;;;2.42;1.75;;;10.70;81.90;;;;;;5045158;28;20445;-80
2023/04/15 12:06:12;;;;;;;2.08;1.60;;;10.70;72.30;;;;;;5044632;28;20032;-79
2023/04/15 12:08:57;;;;;;;2.53;1.90;;;10.70;69.50;;;;;;5044411;28;20022;-75
2023/04/15 12:11:26;;;;;;;2.15;1.60;;;10.50;67.80;;;;;;5039227;28;20029;-74
2023/04/15 12:14:14;;;;;;;3.20;1.75;;;10.50;69.30;;;;;;5040746;28;20021;-74
2023/04/15 12:16:49;;;;;;;1.70;1.60;;;10.50;71.30;;;;;;5040739;28;20036;-73
2023/04/15 12:19:18;;;;;;;1.70;1.60;;;10.40;71.60;;;;;;5024949;28;20492;-75
2023/04/15 12:21:46;;;;;;;3.88;1.73;;;10.20;73.50;;;;;;5040407;28;20377;-74
2023/04/15 12:24:12;;;;;;;10.63;1.88;;;10.20;74.60;;;;;;5039946;28;20033;-74
2023/04/15 12:27:01;;;;;;;1.60;1.50;;;10.10;79.10;;;;;;5040610;28;20112;-74
2023/04/15 12:29:28;;;;;;;2.60;1.63;;;10.10;78.10;;;;;;5040453;28;20167;-74
2023/04/15 12:32:04;;;;;;;5.88;2.35;;;10.20;84.50;;;;;;5039369;28;20053;-72
2023/04/15 12:34:38;;;;;;;2.72;2.10;;;10.10;88.50;;;;;;5037895;28;20033;-72
2023/04/15 12:37:06;;;;;;;2.20;1.80;;;10.00;78.70;;;;;;5037612;28;20057;-72
2023/04/15 12:39:35;;;;;;;2.10;1.88;;;10.00;81.60;;;;;;5020115;28;20026;-71
2023/04/15 12:42:01;;;;;;;2.13;2.03;;;10.10;92.60;;;;;;5036140;28;20029;-71
2023/04/15 12:44:27;;;;;;;1.85;1.67;;;10.10;91.00;;;;;;5037215;28;20072;-71
2023/04/15 12:46:53;;;;;;;1.77;1.58;;;10.00;86.80;;;;;;5037198;28;20026;-71
2023/04/15 12:49:23;;;;;;;2.28;1.90;;;10.00;84.10;;;;;;5037427;28;20448;-71
2023/04/15 12:51:53;;;;;;;2.47;1.65;;;9.90;84.10;;;;;;5037138;28;20538;-72
2023/04/15 12:54:20;;;;;;;2.33;1.85;;;9.90;81.90;;;;;;5037864;28;20049;-71
2023/04/15 12:56:47;;;;;;;2.30;1.80;;;9.90;80.70;;;;;;5037001;28;20416;-72